Time;durP1;ratioP1;P1;durP2;ratioP2;P2;SDS_P1;SDS_P2;PMS_P1;PMS_P2;Temp;Humidity;BMP_temperature;BMP_pressure;BME280_temperature;BME280_humidity;BME280_pressure;Samples;Min_cycle;Max_cycle;Signal;HPM_P1;HPM_P2
2021/04/16 00:02:21;;;;;;;;;;;;;;;26.59;25.66;100997.63;5077512;28;1879;-34
2021/04/16 00:04:46;;;;;;;;;;;;;;;26.83;25.23;101011.22;5092359;28;971;-32
2021/04/16 00:07:12;;;;;;;;;;;;;;;27.00;24.90;101015.53;5098851;28;759;-29
2021/04/16 00:09:37;;;;;;;;;;;;;;;26.81;24.98;101010.56;5097891;28;956;-31
2021/04/16 00:12:03;;;;;;;;;;;;;;;26.62;24.92;101007.25;5098610;28;791;-31
2021/04/16 00:14:28;;;;;;;;;;;;;;;26.59;25.45;101007.59;5098556;28;1134;-34
2021/04/16 00:16:54;;;;;;;;;;;;;;;26.88;25.42;101009.69;5097853;28;762;-31
2021/04/16 00:19:19;;;;;;;;;;;;;;;26.82;24.07;101009.53;5087462;28;970;-34
2021/04/16 00:21:44;;;;;;;;;;;;;;;26.71;23.37;101008.91;5078008;28;1914;-35
2021/04/16 00:24:11;;;;;;;;;;;;;;;26.18;25.01;101012.03;5077351;28;1492;-34
2021/04/16 00:26:36;;;;;;;;;;;;;;;26.77;24.92;101010.91;5078010;28;786;-35
2021/04/16 00:29:01;;;;;;;;;;;;;;;26.86;24.49;101010.88;5077852;28;812;-33
2021/04/16 00:31:28;;;;;;;;;;;;;;;26.70;23.40;101006.38;5077496;28;790;-34
2021/04/16 00:33:53;;;;;;;;;;;;;;;26.61;23.42;101008.28;5077552;28;950;-35
2021/04/16 00:36:19;;;;;;;;;;;;;;;26.39;24.67;101011.50;5076710;28;802;-34
2021/04/16 00:38:44;;;;;;;;;;;;;;;26.73;25.05;101004.19;5076952;28;835;-32
2021/04/16 00:41:11;;;;;;;;;;;;;;;26.72;24.86;101001.66;5076106;28;1527;-35
2021/04/16 00:43:36;;;;;;;;;;;;;;;26.71;24.28;100999.97;5077507;28;1902;-34
2021/04/16 00:46:04;;;;;;;;;;;;;;;26.62;24.26;101001.84;5083927;28;1594;-33
2021/04/16 00:48:31;;;;;;;;;;;;;;;26.41;24.25;101005.94;5093912;28;974;-35
2021/04/16 00:50:57;;;;;;;;;;;;;;;26.67;24.96;100998.63;5077228;28;815;-35
2021/04/16 00:53:23;;;;;;;;;;;;;;;26.72;24.78;100998.94;5077035;28;812;-32
2021/04/16 00:55:48;;;;;;;;;;;;;;;26.73;24.86;101004.19;5076821;28;890;-34
2021/04/16 00:58:13;;;;;;;;;;;;;;;26.50;24.16;101004.94;5059025;28;736;-33
2021/04/16 01:00:40;;;;;;;;;;;;;;;26.46;23.07;101010.84;5059203;28;981;-33
2021/04/16 01:03:05;;;;;;;;;;;;;;;26.39;24.61;101005.28;5058643;28;1909;-34
2021/04/16 01:05:31;;;;;;;;;;;;;;;26.77;24.50;101002.81;5097508;28;755;-33
2021/04/16 01:07:56;;;;;;;;;;;;;;;26.58;23.69;100998.66;5097454;28;882;-36
2021/04/16 01:10:21;;;;;;;;;;;;;;;26.54;23.02;100997.34;5097066;28;878;-38
2021/04/16 01:12:47;;;;;;;;;;;;;;;26.34;24.44;101002.28;5097390;28;805;-36
2021/04/16 01:15:24;;;;;;;;;;;;;;;26.64;24.83;100997.13;5097243;28;1075;-36
2021/04/16 01:17:50;;;;;;;;;;;;;;;26.87;24.49;101002.63;5096637;28;817;-37
2021/04/16 01:20:20;;;;;;;;;;;;;;;26.66;23.37;101000.47;5078679;28;950;-34
2021/04/16 01:22:48;;;;;;;;;;;;;;;26.55;23.99;101006.25;5075866;28;1913;-35
2021/04/16 01:25:14;;;;;;;;;;;;;;;26.31;24.88;101003.41;5076451;28;882;-35
2021/04/16 01:27:39;;;;;;;;;;;;;;;26.68;24.56;101008.41;5058666;28;756;-34
2021/04/16 01:30:15;;;;;;;;;;;;;;;26.53;24.97;101009.97;5076810;28;970;-35
2021/04/16 01:32:41;;;;;;;;;;;;;;;26.60;25.10;101006.56;5074874;28;891;-35
2021/04/16 01:35:07;;;;;;;;;;;;;;;26.51;24.24;101001.19;5076726;28;1005;-36
2021/04/16 01:37:33;;;;;;;;;;;;;;;26.09;25.55;101007.66;5077134;28;751;-37
2021/04/16 01:39:58;;;;;;;;;;;;;;;26.72;24.92;101004.34;5076476;28;867;-34
2021/04/16 01:42:23;;;;;;;;;;;;;;;27.05;24.79;101004.25;5076731;28;1955;-35
2021/04/16 01:44:49;;;;;;;;;;;;;;;26.67;24.41;101002.19;5077096;28;744;-34
2021/04/16 01:47:14;;;;;;;;;;;;;;;26.62;24.80;101008.09;5093014;28;1575;-33
2021/04/16 01:49:44;;;;;;;;;;;;;;;26.37;25.63;100997.38;5083372;28;1002;-34
2021/04/16 01:52:10;;;;;;;;;;;;;;;26.80;25.25;100996.22;5076984;28;805;-33
2021/04/16 01:54:36;;;;;;;;;;;;;;;27.07;24.74;100991.41;5076339;28;748;-31
2021/04/16 01:57:03;;;;;;;;;;;;;;;26.78;24.63;100999.09;5077006;28;728;-33
2021/04/16 01:59:30;;;;;;;;;;;;;;;26.56;25.40;100989.88;5076517;28;787;-33
2021/04/16 02:01:55;;;;;;;;;;;;;;;26.49;25.48;100987.03;5076056;28;1971;-35
2021/04/16 02:04:20;;;;;;;;;;;;;;;26.87;24.84;100991.81;5087045;28;1006;-34
2021/04/16 02:06:46;;;;;;;;;;;;;;;27.01;24.67;100994.75;5096620;28;820;-34
2021/04/16 02:09:13;;;;;;;;;;;;;;;26.67;24.46;101002.19;5096399;28;799;-34
2021/04/16 02:11:38;;;;;;;;;;;;;;;26.53;25.18;101007.28;5101202;28;855;-33
2021/04/16 02:14:13;;;;;;;;;;;;;;;26.31;26.00;101008.78;5100679;28;751;-35
2021/04/16 02:16:39;;;;;;;;;;;;;;;26.83;25.19;100997.72;5100526;28;821;-34
2021/04/16 02:19:05;;;;;;;;;;;;;;;27.06;25.06;101000.50;5091695;28;970;-36
2021/04/16 02:21:30;;;;;;;;;;;;;;;26.72;25.36;100994.41;5079882;28;831;-36
2021/04/16 02:23:55;;;;;;;;;;;;;;;26.60;25.54;100993.94;5079595;28;2401;-35
2021/04/16 02:26:21;;;;;;;;;;;;;;;26.59;25.72;100997.63;5080309;28;845;-35
2021/04/16 02:28:46;;;;;;;;;;;;;;;26.87;25.39;101013.41;5079704;28;1510;-35
2021/04/16 02:31:11;;;;;;;;;;;;;;;27.03;24.87;101003.56;5079690;28;772;-33
2021/04/16 02:33:36;;;;;;;;;;;;;;;26.70;25.22;101015.31;5079545;28;1096;-33
2021/04/16 02:36:02;;;;;;;;;;;;;;;26.61;25.33;101014.50;5079853;28;826;-32
2021/04/16 02:38:27;;;;;;;;;;;;;;;26.56;25.81;101019.56;5079894;28;790;-34
2021/04/16 02:40:53;;;;;;;;;;;;;;;26.81;25.19;101014.09;5079917;28;810;-35
2021/04/16 02:43:18;;;;;;;;;;;;;;;26.97;25.07;101032.09;5080087;28;1981;-34
2021/04/16 02:45:44;;;;;;;;;;;;;;;26.76;24.34;101019.16;5083521;28;1629;-34
2021/04/16 02:48:09;;;;;;;;;;;;;;;26.51;24.74;101016.53;5099048;28;951;-34
2021/04/16 02:50:34;;;;;;;;;;;;;;;26.16;23.54;101017.59;5079573;28;763;-34
2021/04/16 02:53:00;;;;;;;;;;;;;;;26.53;24.88;101023.47;5079383;28;739;-35
2021/04/16 02:55:25;;;;;;;;;;;;;;;26.61;23.53;101030.69;5079793;28;757;-34
2021/04/16 02:57:50;;;;;;;;;;;;;;;26.73;24.24;101017.66;5079619;28;809;-34
2021/04/16 03:00:17;;;;;;;;;;;;;;;26.58;24.20;101012.16;5078853;28;818;-34
2021/04/16 03:02:42;;;;;;;;;;;;;;;26.41;24.84;101016.72;5079246;28;1977;-35
2021/04/16 03:05:08;;;;;;;;;;;;;;;26.23;25.19;101028.53;5096692;28;947;-35
2021/04/16 03:07:34;;;;;;;;;;;;;;;26.73;24.86;101019.50;5099451;28;823;-35
2021/04/16 03:09:59;;;;;;;;;;;;;;;27.05;24.36;101015.03;5099409;28;791;-35
2021/04/16 03:12:24;;;;;;;;;;;;;;;26.73;24.69;101024.91;5099401;28;804;-34
2021/04/16 03:14:49;;;;;;;;;;;;;;;26.42;24.67;101015.75;5099157;28;1123;-35
2021/04/16 03:17:15;;;;;;;;;;;;;;;26.38;25.38;101020.63;5099444;28;827;-34
2021/04/16 03:19:40;;;;;;;;;;;;;;;26.70;25.24;101034.22;5085656;28;903;-35
2021/04/16 03:22:05;;;;;;;;;;;;;;;26.43;22.22;101027.34;5078040;28;1914;-37
2021/04/16 03:24:31;;;;;;;;;;;;;;;25.74;22.82;101027.50;5079149;28;956;-38
2021/04/16 03:26:56;;;;;;;;;;;;;;;24.24;24.68;101032.22;5079216;28;835;-36
2021/04/16 03:29:21;;;;;;;;;;;;;;;24.32;23.79;101031.44;5078519;28;867;-38
2021/04/16 03:31:46;;;;;;;;;;;;;;;24.48;23.01;101032.53;5078997;28;815;-35
2021/04/16 03:34:12;;;;;;;;;;;;;;;24.32;23.14;101021.53;5078968;28;1073;-36
2021/04/16 03:36:37;;;;;;;;;;;;;;;24.54;21.45;101018.50;5078481;28;755;-38
2021/04/16 03:39:02;;;;;;;;;;;;;;;24.39;21.68;101032.50;5078927;28;826;-38
2021/04/16 03:41:28;;;;;;;;;;;;;;;25.01;21.10;101027.97;5078827;28;842;-38
2021/04/16 03:43:53;;;;;;;;;;;;;;;25.72;22.60;101029.56;5078172;28;1902;-37
2021/04/16 03:46:18;;;;;;;;;;;;;;;25.62;23.65;101026.13;5087393;28;1602;-37
2021/04/16 03:48:44;;;;;;;;;;;;;;;26.29;24.57;101043.22;5093418;28;947;-37
2021/04/16 03:51:09;;;;;;;;;;;;;;;26.22;22.04;101044.88;5077713;28;823;-36
2021/04/16 03:53:35;;;;;;;;;;;;;;;26.05;22.06;101042.19;5078682;28;802;-36
2021/04/16 03:56:00;;;;;;;;;;;;;;;25.86;22.97;101041.50;5078260;28;898;-31
2021/04/16 03:58:26;;;;;;;;;;;;;;;26.14;23.90;101051.97;5078384;28;1094;-26
2021/04/16 04:00:51;;;;;;;;;;;;;;;26.37;23.83;101051.31;5077765;28;795;-27
2021/04/16 04:03:16;;;;;;;;;;;;;;;26.24;24.35;101054.47;5080068;28;1902;-34
2021/04/16 04:05:41;;;;;;;;;;;;;;;25.95;25.05;101047.75;5098446;28;822;-36
2021/04/16 04:08:07;;;;;;;;;;;;;;;26.59;24.28;101058.88;5098254;28;986;-41
2021/04/16 04:10:38;;;;;;;;;;;;;;;26.58;23.44;101060.72;5098726;28;747;-32
2021/04/16 04:13:07;;;;;;;;;;;;;;;26.60;23.48;101047.91;5098235;28;826;-39
2021/04/16 04:15:32;;;;;;;;;;;;;;;26.59;24.05;101056.16;5098010;28;1269;-39
2021/04/16 04:17:58;;;;;;;;;;;;;;;26.34;24.31;101053.50;5098291;28;754;-40
2021/04/16 04:20:24;;;;;;;;;;;;;;;26.07;24.76;101047.41;5078657;28;982;-38
2021/04/16 04:22:49;;;;;;;;;;;;;;;26.67;24.40;101056.16;5077305;28;1906;-32
2021/04/16 04:25:17;;;;;;;;;;;;;;;26.92;24.32;101066.88;5077866;28;762;-36
2021/04/16 04:27:42;;;;;;;;;;;;;;;26.83;24.26;101059.78;5077290;28;899;-35
2021/04/16 04:30:07;;;;;;;;;;;;;;;26.80;24.78;101055.59;5076708;28;823;-40
2021/04/16 04:32:33;;;;;;;;;;;;;;;26.73;25.11;101066.25;5076493;28;811;-40
2021/04/16 04:34:58;;;;;;;;;;;;;;;26.98;25.34;101076.13;5077420;28;1008;-32
2021/04/16 04:37:23;;;;;;;;;;;;;;;27.08;24.84;101076.78;5077387;28;828;-28
2021/04/16 04:39:49;;;;;;;;;;;;;;;27.05;25.16;101085.25;5077517;28;786;-38
2021/04/16 04:42:14;;;;;;;;;;;;;;;26.91;25.50;101084.06;5077255;28;1894;-50
2021/04/16 04:44:39;;;;;;;;;;;;;;;26.68;26.38;101092.03;5077181;28;822;-33
2021/04/16 04:47:05;;;;;;;;;;;;;;;27.13;25.45;101087.91;5092563;28;1618;-37
2021/04/16 04:49:30;;;;;;;;;;;;;;;27.35;24.93;101081.91;5085267;28;998;-37
2021/04/16 04:52:09;;;;;;;;;;;;;;;27.08;25.03;101086.72;5076955;28;752;-37
2021/04/16 04:54:34;;;;;;;;;;;;;;;26.66;25.89;101094.91;5076872;28;843;-37
2021/04/16 04:56:59;;;;;;;;;;;;;;;26.23;26.91;101081.63;5076768;28;884;-38
2021/04/16 04:59:25;;;;;;;;;;;;;;;26.94;26.18;101078.34;5076757;28;807;-35
2021/04/16 05:01:50;;;;;;;;;;;;;;;27.25;25.78;101074.00;5076617;28;1905;-38
2021/04/16 05:04:15;;;;;;;;;;;;;;;27.30;25.37;101074.34;5076928;28;1012;-36
2021/04/16 05:06:40;;;;;;;;;;;;;;;27.10;25.66;101068.50;5075088;28;861;-39
2021/04/16 05:09:06;;;;;;;;;;;;;;;26.63;25.48;101079.06;5076417;28;875;-36
2021/04/16 05:11:31;;;;;;;;;;;;;;;26.75;25.03;101072.31;5077420;28;736;-33
2021/04/16 05:13:56;;;;;;;;;;;;;;;26.90;24.48;101075.16;5076236;28;827;-36
2021/04/16 05:16:22;;;;;;;;;;;;;;;27.10;25.25;101074.75;5076754;28;1321;-31
2021/04/16 05:18:49;;;;;;;;;;;;;;;26.94;25.29;101075.66;5076663;28;1013;-31
2021/04/16 05:21:14;;;;;;;;;;;;;;;26.76;25.59;101060.50;5076545;28;841;-37
2021/04/16 05:23:40;;;;;;;;;;;;;;;26.78;26.08;101071.13;5076348;28;1984;-31
2021/04/16 05:26:05;;;;;;;;;;;;;;;27.13;25.77;101060.91;5076943;28;791;-34
2021/04/16 05:28:30;;;;;;;;;;;;;;;27.24;25.54;101070.47;5076328;28;1043;-30
2021/04/16 05:30:56;;;;;;;;;;;;;;;27.11;25.76;101068.34;5076804;28;875;-38
2021/04/16 05:33:21;;;;;;;;;;;;;;;26.65;26.21;101066.25;5076314;28;839;-31
2021/04/16 05:35:46;;;;;;;;;;;;;;;26.65;26.74;101077.06;5076130;28;855;-40
2021/04/16 05:38:12;;;;;;;;;;;;;;;27.20;25.80;101061.03;5076605;28;738;-34
2021/04/16 05:40:37;;;;;;;;;;;;;;;27.33;25.56;101067.72;5076694;28;831;-41
2021/04/16 05:43:02;;;;;;;;;;;;;;;27.20;25.74;101061.03;5076006;28;1970;-35
2021/04/16 05:45:27;;;;;;;;;;;;;;;26.88;25.97;101060.13;5076527;28;1649;-36
2021/04/16 05:47:53;;;;;;;;;;;;;;;26.69;26.79;101061.38;5076721;28;791;-31
2021/04/16 05:50:18;;;;;;;;;;;;;;;26.80;26.58;101055.59;5075648;28;1002;-36
2021/04/16 05:52:44;;;;;;;;;;;;;;;27.23;26.22;101060.69;5076572;28;794;-31
2021/04/16 05:55:09;;;;;;;;;;;;;;;27.19;25.54;101067.47;5076612;28;780;-28
2021/04/16 05:57:34;;;;;;;;;;;;;;;26.92;26.04;101071.41;5075978;28;754;-33
2021/04/16 06:00:00;;;;;;;;;;;;;;;26.81;26.34;101068.06;5076499;28;886;-33
2021/04/16 06:02:35;;;;;;;;;;;;;;;27.05;26.07;101077.13;5076549;28;1902;-42
2021/04/16 06:05:01;;;;;;;;;;;;;;;27.36;25.86;101070.91;5075330;28;954;-34
2021/04/16 06:07:26;;;;;;;;;;;;;;;27.28;25.84;101075.53;5076261;28;961;-39
2021/04/16 06:09:52;;;;;;;;;;;;;;;26.76;26.70;101079.38;5076331;28;718;-35
2021/04/16 06:12:18;;;;;;;;;;;;;;;26.93;26.82;101076.63;5075779;28;840;-41
2021/04/16 06:14:43;;;;;;;;;;;;;;;27.47;26.03;101083.19;5076543;28;1064;-33
2021/04/16 06:17:09;;;;;;;;;;;;;;;27.34;25.59;101086.44;5076397;28;747;-33
2021/04/16 06:19:35;;;;;;;;;;;;;;;26.84;26.60;101093.88;5075473;28;994;-35
2021/04/16 06:22:00;;;;;;;;;;;;;;;26.65;26.78;101095.94;5076207;28;1910;-41
2021/04/16 06:24:25;;;;;;;;;;;;;;;27.17;26.30;101098.34;5076444;28;832;-39
2021/04/16 06:26:50;;;;;;;;;;;;;;;27.51;25.76;101098.03;5075388;28;789;-32
2021/04/16 06:29:16;;;;;;;;;;;;;;;27.24;25.78;101093.94;5076150;28;811;-38
2021/04/16 06:31:41;;;;;;;;;;;;;;;27.01;26.29;101094.66;5076114;28;753;-35
2021/04/16 06:34:06;;;;;;;;;;;;;;;26.88;26.29;101101.47;5075916;28;1029;-32
2021/04/16 06:36:31;;;;;;;;;;;;;;;27.23;25.86;101103.06;5076131;28;787;-32
2021/04/16 06:38:57;;;;;;;;;;;;;;;27.51;25.43;101108.84;5076016;28;756;-30
2021/04/16 06:41:24;;;;;;;;;;;;;;;27.13;25.95;101104.13;5075656;28;895;-37
2021/04/16 06:43:53;;;;;;;;;;;;;;;27.00;26.02;101110.03;5074796;28;1914;-38
2021/04/16 06:46:23;;;;;;;;;;;;;;;26.97;26.25;101113.09;5084721;28;1578;-33
2021/04/16 06:48:49;;;;;;;;;;;;;;;27.37;25.68;101117.69;5070305;28;1011;-30
2021/04/16 06:51:14;;;;;;;;;;;;;;;27.30;25.20;101117.56;5090203;28;1188;-31
2021/04/16 06:53:44;;;;;;;;;;;;;;;27.04;26.09;101109.72;5077104;28;1442;-31
2021/04/16 06:56:13;;;;;;;;;;;;;;;26.86;26.16;101105.38;5097214;28;824;-30
2021/04/16 06:58:42;;;;;;;;;;;;;;;27.34;25.56;101112.66;5081713;28;833;-28
2021/04/16 07:01:13;;;;;;;;;;;;;;;27.30;25.44;101117.56;5099357;28;782;-31
2021/04/16 07:03:40;;;;;;;;;;;;;;;27.07;26.10;101107.53;5080870;28;1953;-36
2021/04/16 07:06:06;;;;;;;;;;;;;;;26.81;26.26;101110.44;5081236;28;793;-35
2021/04/16 07:08:33;;;;;;;;;;;;;;;27.02;26.56;101112.59;5099457;28;732;-33
2021/04/16 07:10:59;;;;;;;;;;;;;;;27.28;25.80;101124.16;5099654;28;812;-38
2021/04/16 07:13:29;;;;;;;;;;;;;;;27.04;26.25;101120.50;5081054;28;845;-36
2021/04/16 07:15:55;;;;;;;;;;;;;;;26.98;26.24;101119.31;5081158;28;1091;-30
2021/04/16 07:18:21;;;;;;;;;;;;;;;27.12;26.19;101120.50;5096428;28;966;-32
2021/04/16 07:20:47;;;;;;;;;;;;;;;27.00;26.30;101118.13;5077480;28;793;-30
2021/04/16 07:23:12;;;;;;;;;;;;;;;27.19;25.64;101124.19;5079064;28;1910;-44
2021/04/16 07:25:46;;;;;;;;;;;;;;;27.29;25.73;101115.88;5077121;28;838;-37
2021/04/16 07:28:12;;;;;;;;;;;;;;;27.10;26.29;101114.41;5078821;28;824;-37
2021/04/16 07:30:47;;;;;;;;;;;;;;;27.12;26.01;101120.50;5078879;28;732;-40
2021/04/16 07:33:22;;;;;;;;;;;;;;;27.04;26.07;101112.41;5078172;28;962;-37
2021/04/16 07:35:47;;;;;;;;;;;;;;;26.63;26.98;101128.50;5079055;28;818;-40
2021/04/16 07:38:29;;;;;;;;;;;;;;;26.65;27.05;101128.31;5078873;28;839;-39
2021/04/16 07:41:13;;;;;;;;;;;;;;;26.96;26.36;101129.47;5078464;28;767;-35
2021/04/16 07:43:41;;;;;;;;;;;;;;;27.05;26.17;101130.28;5077256;28;1902;-37
2021/04/16 07:46:06;;;;;;;;;;;;;;;26.99;26.62;101127.22;5080820;28;1658;-40
2021/04/16 07:48:34;;;;;;;;;;;;;;;27.04;26.48;101117.81;5075822;28;1386;-30
2021/04/16 07:51:04;;;;;;;;;;;;;;;26.99;26.21;101119.13;5078433;28;952;-39
2021/04/16 07:53:35;;;;;;;;;;;;;;;26.93;26.55;101127.94;5081209;28;818;-32
2021/04/16 07:56:04;;;;;;;;;;;;;;;26.90;26.35;101121.03;5115310;28;828;-37
2021/04/16 07:58:29;;;;;;;;;;;;;;;27.01;26.39;101119.84;5118701;28;819;-35
2021/04/16 08:00:54;;;;;;;;;;;;;;;26.96;26.39;101119.47;5100792;28;732;-38
2021/04/16 08:03:20;;;;;;;;;;;;;;;26.92;26.55;101117.31;5095110;28;1902;-33
2021/04/16 08:05:53;;;;;;;;;;;;;;;27.04;26.31;101123.22;5070976;28;817;-34
2021/04/16 08:08:20;;;;;;;;;;;;;;;26.96;26.36;101121.38;5098431;28;800;-30
2021/04/16 08:10:46;;;;;;;;;;;;;;;27.00;26.45;101118.13;5098153;28;814;-36
2021/04/16 08:13:20;;;;;;;;;;;;;;;26.99;26.10;101121.00;5098576;28;869;-34
2021/04/16 08:15:46;;;;;;;;;;;;;;;27.01;26.17;101118.97;5098391;28;1102;-33
2021/04/16 08:18:27;;;;;;;;;;;;;;;27.04;26.64;101124.06;5096436;28;1029;-36
2021/04/16 08:20:55;;;;;;;;;;;;;;;26.97;26.10;101115.78;5076955;28;890;-31
2021/04/16 08:23:21;;;;;;;;;;;;;;;26.93;26.25;101116.28;5077615;28;1908;-29
2021/04/16 08:25:49;;;;;;;;;;;;;;;26.97;25.91;101125.72;5077468;28;996;-42
2021/04/16 08:28:16;;;;;;;;;;;;;;;26.95;26.28;101109.72;5076827;28;818;-31
2021/04/16 08:31:00;;;;;;;;;;;;;;;26.98;26.51;101112.06;5076533;28;811;-39
2021/04/16 08:33:33;;;;;;;;;;;;;;;26.94;25.98;101107.19;5075211;28;873;-36
2021/04/16 08:36:05;;;;;;;;;;;;;;;27.04;25.54;101118.66;5099061;28;853;-35
2021/04/16 08:38:35;;;;;;;;;;;;;;;27.15;26.17;101120.13;5118276;28;857;-31
2021/04/16 08:41:00;;;;;;;;;;;;;;;27.12;25.85;101117.78;5098895;28;965;-40
2021/04/16 08:43:28;;;;;;;;;;;;;;;27.13;25.82;101119.47;5118133;28;1960;-39
2021/04/16 08:45:54;;;;;;;;;;;;;;;27.16;25.55;101112.88;5107294;28;1589;-37
2021/04/16 08:48:22;;;;;;;;;;;;;;;27.22;25.58;101110.34;5076675;28;957;-35
2021/04/16 08:50:53;;;;;;;;;;;;;;;27.26;25.40;101121.59;5076199;28;767;-39
2021/04/16 08:53:18;;;;;;;;;;;;;;;27.05;25.45;101114.09;5076562;28;763;-33
2021/04/16 08:55:44;;;;;;;;;;;;;;;26.93;26.02;101109.03;5076648;28;833;-32
2021/04/16 08:58:16;;;;;;;;;;;;;;;26.50;26.29;101109.28;5076437;28;724;-37
2021/04/16 09:00:45;;;;;;;;;;;;;;;26.40;26.82;101120.25;5076990;28;825;-35
2021/04/16 09:03:21;;;;;;;;;;;;;;;26.45;26.36;101123.28;5074956;28;1941;-32
2021/04/16 09:05:51;;;;;;;;;;;;;;;26.34;26.80;101119.06;5075805;28;847;-39
2021/04/16 09:08:17;;;;;;;;;;;;;;;26.24;26.72;101110.28;5075725;28;779;-33
2021/04/16 09:10:42;;;;;;;;;;;;;;;26.34;26.84;101121.75;5075434;28;779;-37
2021/04/16 09:13:10;;;;;;;;;;;;;;;26.31;27.03;101113.97;5077098;28;775;-34
2021/04/16 09:15:37;;;;;;;;;;;;;;;26.23;27.16;101120.22;5076892;28;1246;-38
2021/04/16 09:18:02;;;;;;;;;;;;;;;26.33;26.83;101121.94;5075871;28;846;-32
2021/04/16 09:20:48;;;;;;;;;;;;;;;26.26;27.10;101122.56;5076721;28;966;-37
2021/04/16 09:23:39;;;;;;;;;;;;;;;26.23;26.91;101122.91;5076279;28;1906;-31
2021/04/16 09:26:07;;;;;;;;;;;;;;;26.33;26.71;101122.78;5060214;28;1104;-38
2021/04/16 09:28:53;;;;;;;;;;;;;;;26.46;26.43;101114.16;5076538;28;775;-38
2021/04/16 09:31:22;;;;;;;;;;;;;;;26.64;25.51;101116.69;5077054;28;1474;-33
2021/04/16 09:33:48;;;;;;;;;;;;;;;26.70;25.97;101117.00;5075989;28;947;-39
2021/04/16 09:36:33;;;;;;;;;;;;;;;26.75;25.50;101104.69;5076704;28;802;-36
2021/04/16 09:39:13;;;;;;;;;;;;;;;26.57;26.10;101115.69;5075395;28;1205;-36
2021/04/16 09:41:49;;;;;;;;;;;;;;;26.44;24.85;101104.56;5076822;28;917;-36
2021/04/16 09:44:27;;;;;;;;;;;;;;;26.47;25.66;101105.09;5076294;28;1894;-35
2021/04/16 09:46:52;;;;;;;;;;;;;;;26.65;25.86;101101.34;5089471;28;1613;-35
2021/04/16 09:49:23;;;;;;;;;;;;;;;26.52;25.82;101099.16;5077745;28;938;-37
2021/04/16 09:51:49;;;;;;;;;;;;;;;26.60;25.49;101098.31;5096677;28;763;-35
2021/04/16 09:54:20;;;;;;;;;;;;;;;26.74;25.52;101089.50;5096409;28;890;-39
2021/04/16 09:57:00;;;;;;;;;;;;;;;26.76;25.54;101090.19;5096743;28;822;-34
2021/04/16 09:59:32;;;;;;;;;;;;;;;26.75;25.62;101084.97;5096389;28;712;-39
2021/04/16 10:02:09;;;;;;;;;;;;;;;26.88;25.66;101087.97;5096183;28;1971;-35
2021/04/16 10:04:53;;;;;;;;;;;;;;;26.75;25.34;101091.22;5083744;28;942;-36
2021/04/16 10:07:19;;;;;;;;;;;;;;;26.82;25.49;101090.50;5076451;28;760;-37
2021/04/16 10:09:45;;;;;;;;;;;;;;;26.99;25.39;101094.00;5075875;28;812;-36
2021/04/16 10:12:12;;;;;;;;;;;;;;;27.03;25.19;101084.56;5076467;28;768;-34
2021/04/16 10:14:38;;;;;;;;;;;;;;;27.08;25.27;101082.19;5076155;28;1576;-39
2021/04/16 10:17:05;;;;;;;;;;;;;;;27.14;25.30;101084.19;5076009;28;833;-33
2021/04/16 10:19:35;;;;;;;;;;;;;;;27.14;25.13;101094.16;5074595;28;1014;-36
2021/04/16 10:22:09;;;;;;;;;;;;;;;27.06;25.34;101084.22;5074761;28;1917;-38
2021/04/16 12:39:39;;;;;;;;;;;;;;;25.73;16.86;101008.81;5117128;28;851;-33
2021/04/16 12:42:05;;;;;;;;;;;;;;;26.33;20.83;100998.72;5116948;28;1960;-37
2021/04/16 12:44:33;;;;;;;;;;;;;;;26.95;22.11;101007.13;5097963;28;1085;-33
2021/04/16 12:47:00;;;;;;;;;;;;;;;27.23;22.42;100998.56;5087963;28;1327;-30
2021/04/16 12:49:26;;;;;;;;;;;;;;;27.31;22.80;100994.16;5070395;28;975;-37
2021/04/16 12:51:52;;;;;;;;;;;;;;;27.35;22.61;101004.41;5080283;28;974;-35
2021/04/16 12:54:17;;;;;;;;;;;;;;;27.42;22.72;100999.13;5075303;28;990;-39
2021/04/16 12:56:42;;;;;;;;;;;;;;;27.42;23.05;100996.44;5076199;28;970;-37
2021/04/16 12:59:25;;;;;;;;;;;;;;;27.50;23.19;101000.94;5075794;28;1049;-37
2021/04/16 13:01:52;;;;;;;;;;;;;;;27.41;23.05;100989.34;5076306;28;958;-35
2021/04/16 13:04:18;;;;;;;;;;;;;;;27.34;23.35;100977.59;5075541;28;1894;-36
2021/04/16 13:06:44;;;;;;;;;;;;;;;27.42;23.62;100984.78;5075751;28;959;-35
2021/04/16 13:09:10;;;;;;;;;;;;;;;27.31;23.68;100992.28;5076689;28;1057;-37
2021/04/16 13:11:35;;;;;;;;;;;;;;;27.30;23.92;100982.50;5116495;28;1018;-37
2021/04/16 13:14:00;;;;;;;;;;;;;;;27.22;24.20;100996.91;5115624;28;1014;-38
2021/04/16 13:16:26;;;;;;;;;;;;;;;27.34;23.96;100999.19;5098628;28;1314;-35
2021/04/16 13:18:55;;;;;;;;;;;;;;;27.46;24.21;100992.34;5088383;28;1004;-36
2021/04/16 13:21:37;;;;;;;;;;;;;;;27.53;24.18;100992.47;5077019;28;1158;-37
2021/04/16 13:24:02;;;;;;;;;;;;;;;27.65;24.17;100990.19;5077104;28;1914;-30
2021/04/16 13:26:27;;;;;;;;;;;;;;;27.49;24.10;100997.38;5095958;28;1026;-36
2021/04/16 13:28:53;;;;;;;;;;;;;;;27.50;24.28;100992.81;5095198;28;1038;-37
2021/04/16 13:31:19;;;;;;;;;;;;;;;27.50;24.22;101001.78;5095835;28;947;-37
2021/04/16 13:33:45;;;;;;;;;;;;;;;27.39;24.89;100991.41;5090590;28;1046;-36
2021/04/16 13:36:14;;;;;;;;;;;;;;;27.32;24.47;100993.97;5074889;28;1110;-38
2021/04/16 13:38:39;;;;;;;;;;;;;;;27.50;24.79;100996.38;5096067;28;904;-37
2021/04/16 13:41:06;;;;;;;;;;;;;;;27.52;24.76;100998.91;5101818;28;896;-34
2021/04/16 13:43:32;;;;;;;;;;;;;;;27.57;24.58;101001.06;5115351;28;1902;-32
2021/04/16 13:45:57;;;;;;;;;;;;;;;27.57;24.84;101001.06;5103553;28;1304;-36
2021/04/16 13:48:22;;;;;;;;;;;;;;;27.51;24.83;100998.06;5074601;28;955;-38
2021/04/16 13:50:48;;;;;;;;;;;;;;;27.52;25.06;100993.50;5101409;28;1015;-35
2021/04/16 13:53:13;;;;;;;;;;;;;;;27.54;25.01;101004.13;5087405;28;991;-37
2021/04/16 13:55:38;;;;;;;;;;;;;;;27.61;24.56;100997.81;5075455;28;1176;-36
2021/04/16 13:58:04;;;;;;;;;;;;;;;27.51;25.29;101002.59;5074869;28;1017;-37
2021/04/16 14:00:30;;;;;;;;;;;;;;;27.45;25.81;100997.94;5095334;28;1002;-30
2021/04/16 14:03:01;;;;;;;;;;;;;;;27.34;26.25;100993.78;5095418;28;1902;-36
2021/04/16 14:05:27;;;;;;;;;;;;;;;27.44;25.67;100994.41;5102394;28;899;-37
2021/04/16 14:07:53;;;;;;;;;;;;;;;27.26;25.52;101000.06;5116454;28;969;-35
2021/04/16 14:10:22;;;;;;;;;;;;;;;27.11;25.82;101000.81;5101042;28;1034;-37
2021/04/16 14:12:47;;;;;;;;;;;;;;;27.07;26.36;100988.72;5116621;28;926;-34
2021/04/16 14:15:13;;;;;;;;;;;;;;;26.88;25.68;100984.53;5119181;28;1119;-38
2021/04/16 14:17:39;;;;;;;;;;;;;;;27.05;26.02;100987.19;5074345;28;1139;-36
2021/04/16 14:20:12;;;;;;;;;;;;;;;27.03;26.23;100992.78;5063716;28;1023;-35
2021/04/16 14:22:41;;;;;;;;;;;;;;;27.16;25.88;100994.88;5081043;28;1913;-35
2021/04/16 14:25:11;;;;;;;;;;;;;;;27.08;26.31;100984.13;5081386;28;991;-38
2021/04/16 14:27:36;;;;;;;;;;;;;;;27.13;26.22;100987.16;5099115;28;1010;-35
2021/04/16 14:30:05;;;;;;;;;;;;;;;27.06;26.20;100992.41;5099271;28;982;-32
2021/04/16 14:32:30;;;;;;;;;;;;;;;27.09;26.30;101000.16;5081080;28;1123;-31
2021/04/16 14:34:56;;;;;;;;;;;;;;;27.16;25.87;100984.09;5098926;28;975;-39
2021/04/16 14:37:21;;;;;;;;;;;;;;;27.26;25.87;100991.97;5118988;28;851;-33
2021/04/16 14:39:47;;;;;;;;;;;;;;;27.22;26.03;101004.16;5119396;28;974;-38
2021/04/16 14:42:14;;;;;;;;;;;;;;;27.22;26.05;100999.59;5119185;28;1901;-38
2021/04/16 14:44:39;;;;;;;;;;;;;;;27.32;26.00;101002.06;5118990;28;962;-34
2021/04/16 14:47:05;;;;;;;;;;;;;;;27.27;26.44;101001.75;5087829;28;1307;-39
2021/04/16 14:49:32;;;;;;;;;;;;;;;27.20;26.00;100998.09;5077984;28;1010;-36
2021/04/16 14:51:58;;;;;;;;;;;;;;;27.19;25.97;101001.81;5078133;28;1049;-37
2021/04/16 14:54:25;;;;;;;;;;;;;;;27.20;26.08;101004.34;5077078;28;1002;-37
2021/04/16 14:56:54;;;;;;;;;;;;;;;27.26;26.04;101008.16;5077321;28;888;-41
2021/04/16 14:59:28;;;;;;;;;;;;;;;27.18;25.75;101000.97;5077793;28;1176;-39
2021/04/16 15:01:54;;;;;;;;;;;;;;;27.19;25.93;101012.63;5080744;28;1022;-38
2021/04/16 15:04:19;;;;;;;;;;;;;;;27.27;26.21;101012.56;5093689;28;1897;-40
2021/04/16 15:06:45;;;;;;;;;;;;;;;27.26;26.20;101014.41;5118434;28;981;-34
2021/04/16 15:09:11;;;;;;;;;;;;;;;26.46;22.70;101010.84;5100967;28;987;-38